sensor_id;sensor_type;location;lat;lon;timestamp;temperature;humidity
26136;DHT22;13889;50.806;4.608;2022-09-13T00:00:42;17.50;99.90
26136;DHT22;13889;50.806;4.608;2022-09-13T00:03:09;17.50;99.90
26136;DHT22;13889;50.806;4.608;2022-09-13T00:05:37;17.50;99.90
26136;DHT22;13889;50.806;4.608;2022-09-13T00:08:03;17.40;99.90
26136;DHT22;13889;50.806;4.608;2022-09-13T00:10:30;17.40;99.90
26136;DHT22;13889;50.806;4.608;2022-09-13T00:12:59;17.40;99.90
26136;DHT22;13889;50.806;4.608;2022-09-13T00:15:25;17.40;99.90
26136;DHT22;13889;50.806;4.608;2022-09-13T00:17:50;17.40;99.90
26136;DHT22;13889;50.806;4.608;2022-09-13T00:20:16;17.40;99.90
26136;DHT22;13889;50.806;4.608;2022-09-13T00:22:42;17.40;99.90
26136;DHT22;13889;50.806;4.608;2022-09-13T00:25:08;17.40;99.90
26136;DHT22;13889;50.806;4.608;2022-09-13T00:27:35;17.40;99.90
26136;DHT22;13889;50.806;4.608;2022-09-13T00:30:04;17.40;99.90
26136;DHT22;13889;50.806;4.608;2022-09-13T00:32:30;17.40;99.90
26136;DHT22;13889;50.806;4.608;2022-09-13T00:34:56;17.40;99.90
26136;DHT22;13889;50.806;4.608;2022-09-13T00:37:22;17.40;99.90
26136;DHT22;13889;50.806;4.608;2022-09-13T00:39:47;17.50;99.90
26136;DHT22;13889;50.806;4.608;2022-09-13T00:42:14;17.40;99.90
26136;DHT22;13889;50.806;4.608;2022-09-13T00:45:16;17.40;99.90
26136;DHT22;13889;50.806;4.608;2022-09-13T00:47:50;17.50;99.90
26136;DHT22;13889;50.806;4.608;2022-09-13T00:50:27;17.50;99.90
26136;DHT22;13889;50.806;4.608;2022-09-13T00:55:55;17.50;99.90
26136;DHT22;13889;50.806;4.608;2022-09-13T01:00:52;17.50;99.90
26136;DHT22;13889;50.806;4.608;2022-09-13T01:03:21;17.50;99.90
26136;DHT22;13889;50.806;4.608;2022-09-13T01:05:56;17.50;99.90
26136;DHT22;13889;50.806;4.608;2022-09-13T01:08:23;17.50;99.90
26136;DHT22;13889;50.806;4.608;2022-09-13T01:10:51;17.50;99.90
26136;DHT22;13889;50.806;4.608;2022-09-13T01:13:19;17.60;99.90
26136;DHT22;13889;50.806;4.608;2022-09-13T01:15:45;17.60;99.90
26136;DHT22;13889;50.806;4.608;2022-09-13T01:18:11;17.60;99.90
26136;DHT22;13889;50.806;4.608;2022-09-13T01:53:54;17.70;99.90
26136;DHT22;13889;50.806;4.608;2022-09-13T01:56:28;17.80;99.90
26136;DHT22;13889;50.806;4.608;2022-09-13T01:59:02;17.80;99.90
26136;DHT22;13889;50.806;4.608;2022-09-13T02:01:30;17.80;99.90
26136;DHT22;13889;50.806;4.608;2022-09-13T02:04:07;17.70;99.90
26136;DHT22;13889;50.806;4.608;2022-09-13T02:06:59;17.70;99.90
26136;DHT22;13889;50.806;4.608;2022-09-13T02:09:31;17.80;99.90
26136;DHT22;13889;50.806;4.608;2022-09-13T02:12:13;17.80;99.90
26136;DHT22;13889;50.806;4.608;2022-09-13T02:14:43;17.80;99.90
26136;DHT22;13889;50.806;4.608;2022-09-13T02:17:25;17.80;99.90
26136;DHT22;13889;50.806;4.608;2022-09-13T02:20:09;17.80;99.90
26136;DHT22;13889;50.806;4.608;2022-09-13T02:22:42;17.80;99.90
26136;DHT22;13889;50.806;4.608;2022-09-13T02:25:15;17.80;99.90
26136;DHT22;13889;50.806;4.608;2022-09-13T02:27:45;17.80;99.90
26136;DHT22;13889;50.806;4.608;2022-09-13T02:30:13;17.90;99.90
26136;DHT22;13889;50.806;4.608;2022-09-13T02:33:03;17.80;99.90
26136;DHT22;13889;50.806;4.608;2022-09-13T02:36:32;17.80;99.90
26136;DHT22;13889;50.806;4.608;2022-09-13T02:38:42;17.80;99.90
26136;DHT22;13889;50.806;4.608;2022-09-13T02:41:18;17.80;99.90
26136;DHT22;13889;50.806;4.608;2022-09-13T02:43:52;17.80;99.90
26136;DHT22;13889;50.806;4.608;2022-09-13T02:52:10;17.80;99.90
26136;DHT22;13889;50.806;4.608;2022-09-13T02:54:40;17.70;99.90
26136;DHT22;13889;50.806;4.608;2022-09-13T02:57:18;17.70;99.90
26136;DHT22;13889;50.806;4.608;2022-09-13T02:59:46;17.80;99.90
26136;DHT22;13889;50.806;4.608;2022-09-13T03:02:16;17.80;99.90
26136;DHT22;13889;50.806;4.608;2022-09-13T03:04:43;17.80;99.90
26136;DHT22;13889;50.806;4.608;2022-09-13T03:07:10;17.80;99.90
26136;DHT22;13889;50.806;4.608;2022-09-13T03:09:50;17.80;99.90
26136;DHT22;13889;50.806;4.608;2022-09-13T03:15:00;17.90;99.90
26136;DHT22;13889;50.806;4.608;2022-09-13T03:18:04;17.90;99.90
26136;DHT22;13889;50.806;4.608;2022-09-13T03:20:40;17.90;99.90
26136;DHT22;13889;50.806;4.608;2022-09-13T03:34:36;17.80;99.90
26136;DHT22;13889;50.806;4.608;2022-09-13T03:37:32;17.90;99.90
26136;DHT22;13889;50.806;4.608;2022-09-13T03:40:04;17.90;99.90
26136;DHT22;13889;50.806;4.608;2022-09-13T03:43:05;17.90;99.90
26136;DHT22;13889;50.806;4.608;2022-09-13T03:45:34;17.90;99.90
26136;DHT22;13889;50.806;4.608;2022-09-13T03:48:03;17.90;99.90
26136;DHT22;13889;50.806;4.608;2022-09-13T03:50:30;17.80;99.90
26136;DHT22;13889;50.806;4.608;2022-09-13T03:53:03;17.90;99.90
26136;DHT22;13889;50.806;4.608;2022-09-13T03:55:31;17.90;99.90
26136;DHT22;13889;50.806;4.608;2022-09-13T03:57:58;17.80;99.90
26136;DHT22;13889;50.806;4.608;2022-09-13T04:00:24;17.90;99.90
26136;DHT22;13889;50.806;4.608;2022-09-13T04:02:49;17.90;99.90
26136;DHT22;13889;50.806;4.608;2022-09-13T04:05:15;17.90;99.90
26136;DHT22;13889;50.806;4.608;2022-09-13T04:07:41;17.90;99.90
26136;DHT22;13889;50.806;4.608;2022-09-13T04:10:07;17.90;99.90
26136;DHT22;13889;50.806;4.608;2022-09-13T04:12:33;17.90;99.90
26136;DHT22;13889;50.806;4.608;2022-09-13T04:14:59;17.90;99.90
26136;DHT22;13889;50.806;4.608;2022-09-13T04:17:25;17.90;99.90
26136;DHT22;13889;50.806;4.608;2022-09-13T04:19:50;17.90;99.90
26136;DHT22;13889;50.806;4.608;2022-09-13T04:22:16;17.80;99.90
26136;DHT22;13889;50.806;4.608;2022-09-13T04:24:42;17.80;99.90
26136;DHT22;13889;50.806;4.608;2022-09-13T04:27:09;17.80;99.90
26136;DHT22;13889;50.806;4.608;2022-09-13T04:29:37;17.90;99.90
26136;DHT22;13889;50.806;4.608;2022-09-13T04:32:03;17.90;99.90
26136;DHT22;13889;50.806;4.608;2022-09-13T04:34:29;17.90;99.90
26136;DHT22;13889;50.806;4.608;2022-09-13T04:36:56;17.90;99.90
26136;DHT22;13889;50.806;4.608;2022-09-13T04:39:22;17.90;99.90
26136;DHT22;13889;50.806;4.608;2022-09-13T04:41:51;17.90;99.90
26136;DHT22;13889;50.806;4.608;2022-09-13T04:44:20;17.90;99.90
26136;DHT22;13889;50.806;4.608;2022-09-13T04:46:47;17.90;99.90
26136;DHT22;13889;50.806;4.608;2022-09-13T04:49:15;18.00;99.90
26136;DHT22;13889;50.806;4.608;2022-09-13T04:51:41;18.00;99.90
26136;DHT22;13889;50.806;4.608;2022-09-13T04:54:09;18.00;99.90
26136;DHT22;13889;50.806;4.608;2022-09-13T04:56:35;18.00;99.90
26136;DHT22;13889;50.806;4.608;2022-09-13T04:59:01;18.00;99.90
26136;DHT22;13889;50.806;4.608;2022-09-13T05:01:28;18.00;99.90
26136;DHT22;13889;50.806;4.608;2022-09-13T05:03:54;18.00;99.90
26136;DHT22;13889;50.806;4.608;2022-09-13T05:06:21;18.00;99.90
26136;DHT22;13889;50.806;4.608;2022-09-13T05:08:52;18.00;99.90
26136;DHT22;13889;50.806;4.608;2022-09-13T05:11:20;18.00;99.90
26136;DHT22;13889;50.806;4.608;2022-09-13T05:13:51;18.00;99.90
26136;DHT22;13889;50.806;4.608;2022-09-13T05:16:26;18.00;99.90
26136;DHT22;13889;50.806;4.608;2022-09-13T05:18:53;18.10;99.90
26136;DHT22;13889;50.806;4.608;2022-09-13T05:21:19;18.10;99.90
26136;DHT22;13889;50.806;4.608;2022-09-13T05:39:55;18.20;99.90
26136;DHT22;13889;50.806;4.608;2022-09-13T05:42:20;18.10;99.90
26136;DHT22;13889;50.806;4.608;2022-09-13T05:44:46;18.10;99.90
26136;DHT22;13889;50.806;4.608;2022-09-13T05:57:15;18.20;99.90
26136;DHT22;13889;50.806;4.608;2022-09-13T05:59:40;18.10;99.90
26136;DHT22;13889;50.806;4.608;2022-09-13T06:02:19;18.20;99.90
26136;DHT22;13889;50.806;4.608;2022-09-13T06:04:52;18.10;99.90
26136;DHT22;13889;50.806;4.608;2022-09-13T06:07:17;18.20;99.90
26136;DHT22;13889;50.806;4.608;2022-09-13T06:09:43;18.20;99.90
26136;DHT22;13889;50.806;4.608;2022-09-13T06:12:11;18.20;99.90
26136;DHT22;13889;50.806;4.608;2022-09-13T06:23:51;18.30;99.90
26136;DHT22;13889;50.806;4.608;2022-09-13T06:26:19;18.40;99.90
26136;DHT22;13889;50.806;4.608;2022-09-13T06:28:50;18.40;99.90
26136;DHT22;13889;50.806;4.608;2022-09-13T06:31:18;18.40;99.90
26136;DHT22;13889;50.806;4.608;2022-09-13T06:33:48;18.40;99.90
26136;DHT22;13889;50.806;4.608;2022-09-13T06:36:19;18.50;99.90
26136;DHT22;13889;50.806;4.608;2022-09-13T06:38:46;18.50;99.90
26136;DHT22;13889;50.806;4.608;2022-09-13T06:41:50;18.50;99.90
26136;DHT22;13889;50.806;4.608;2022-09-13T06:44:17;18.60;99.90
26136;DHT22;13889;50.806;4.608;2022-09-13T06:46:55;18.70;99.90
26136;DHT22;13889;50.806;4.608;2022-09-13T06:49:21;18.70;99.90
26136;DHT22;13889;50.806;4.608;2022-09-13T06:51:47;18.70;99.90
26136;DHT22;13889;50.806;4.608;2022-09-13T06:54:13;18.80;99.90
26136;DHT22;13889;50.806;4.608;2022-09-13T06:56:38;18.90;99.90
26136;DHT22;13889;50.806;4.608;2022-09-13T06:59:06;19.00;99.90
26136;DHT22;13889;50.806;4.608;2022-09-13T07:01:34;19.10;99.90
26136;DHT22;13889;50.806;4.608;2022-09-13T07:04:03;19.20;99.90
26136;DHT22;13889;50.806;4.608;2022-09-13T07:06:32;19.20;99.90
26136;DHT22;13889;50.806;4.608;2022-09-13T07:09:00;19.20;99.90
26136;DHT22;13889;50.806;4.608;2022-09-13T07:14:25;19.40;99.90
26136;DHT22;13889;50.806;4.608;2022-09-13T07:16:51;19.60;99.90
26136;DHT22;13889;50.806;4.608;2022-09-13T07:19:22;19.80;99.90
26136;DHT22;13889;50.806;4.608;2022-09-13T07:25:25;20.00;99.90
26136;DHT22;13889;50.806;4.608;2022-09-13T07:28:16;20.10;99.90
26136;DHT22;13889;50.806;4.608;2022-09-13T07:30:42;20.20;99.90
26136;DHT22;13889;50.806;4.608;2022-09-13T07:33:07;20.30;99.90
26136;DHT22;13889;50.806;4.608;2022-09-13T07:35:33;20.40;99.90
26136;DHT22;13889;50.806;4.608;2022-09-13T07:37:58;20.60;99.90
26136;DHT22;13889;50.806;4.608;2022-09-13T07:40:24;20.60;99.90
26136;DHT22;13889;50.806;4.608;2022-09-13T07:42:50;20.70;99.90
26136;DHT22;13889;50.806;4.608;2022-09-13T07:45:15;20.80;99.90
26136;DHT22;13889;50.806;4.608;2022-09-13T07:47:41;21.00;99.90
26136;DHT22;13889;50.806;4.608;2022-09-13T07:50:12;21.10;99.90
26136;DHT22;13889;50.806;4.608;2022-09-13T07:59:05;21.50;99.90
26136;DHT22;13889;50.806;4.608;2022-09-13T08:01:37;21.50;99.90
26136;DHT22;13889;50.806;4.608;2022-09-13T08:04:09;21.60;99.90
26136;DHT22;13889;50.806;4.608;2022-09-13T08:19:07;21.70;99.90
26136;DHT22;13889;50.806;4.608;2022-09-13T08:28:46;22.20;99.90
26136;DHT22;13889;50.806;4.608;2022-09-13T08:49:48;23.10;99.90
26136;DHT22;13889;50.806;4.608;2022-09-13T08:52:46;23.20;99.90
26136;DHT22;13889;50.806;4.608;2022-09-13T09:07:39;23.70;99.90
26136;DHT22;13889;50.806;4.608;2022-09-13T09:10:14;23.80;99.90
26136;DHT22;13889;50.806;4.608;2022-09-13T09:12:52;24.00;99.90
26136;DHT22;13889;50.806;4.608;2022-09-13T09:18:26;24.30;99.90
26136;DHT22;13889;50.806;4.608;2022-09-13T09:20:55;24.50;99.90
26136;DHT22;13889;50.806;4.608;2022-09-13T09:26:31;24.60;99.90
26136;DHT22;13889;50.806;4.608;2022-09-13T09:34:33;25.10;99.90
26136;DHT22;13889;50.806;4.608;2022-09-13T09:56:49;25.40;99.90
26136;DHT22;13889;50.806;4.608;2022-09-13T10:06:18;25.80;99.90
26136;DHT22;13889;50.806;4.608;2022-09-13T10:29:05;25.60;99.90
26136;DHT22;13889;50.806;4.608;2022-09-13T10:31:40;25.70;99.90
26136;DHT22;13889;50.806;4.608;2022-09-13T10:34:31;25.70;99.90
26136;DHT22;13889;50.806;4.608;2022-09-13T10:40:16;25.80;99.90
26136;DHT22;13889;50.806;4.608;2022-09-13T10:43:12;25.90;99.90
26136;DHT22;13889;50.806;4.608;2022-09-13T10:46:21;25.90;99.90
26136;DHT22;13889;50.806;4.608;2022-09-13T10:52:48;26.10;99.90
26136;DHT22;13889;50.806;4.608;2022-09-13T10:58:36;26.00;99.90
26136;DHT22;13889;50.806;4.608;2022-09-13T11:13:10;25.80;99.90
26136;DHT22;13889;50.806;4.608;2022-09-13T11:16:20;25.90;99.90
26136;DHT22;13889;50.806;4.608;2022-09-13T11:58:01;26.10;99.90
26136;DHT22;13889;50.806;4.608;2022-09-13T12:00:35;26.10;99.90
26136;DHT22;13889;50.806;4.608;2022-09-13T12:07:05;26.20;99.90
26136;DHT22;13889;50.806;4.608;2022-09-13T12:22:00;26.10;99.90
26136;DHT22;13889;50.806;4.608;2022-09-13T12:27:55;25.80;99.90
26136;DHT22;13889;50.806;4.608;2022-09-13T12:30:31;25.50;99.90
26136;DHT22;13889;50.806;4.608;2022-09-13T12:32:58;25.30;99.90
26136;DHT22;13889;50.806;4.608;2022-09-13T12:36:10;25.20;99.90
26136;DHT22;13889;50.806;4.608;2022-09-13T12:41:41;25.10;99.90
26136;DHT22;13889;50.806;4.608;2022-09-13T13:01:09;25.00;99.90
26136;DHT22;13889;50.806;4.608;2022-09-13T13:03:44;24.90;99.90
26136;DHT22;13889;50.806;4.608;2022-09-13T13:06:25;24.90;99.90
26136;DHT22;13889;50.806;4.608;2022-09-13T13:08:56;24.90;99.90
26136;DHT22;13889;50.806;4.608;2022-09-13T13:11:24;24.70;99.90
26136;DHT22;13889;50.806;4.608;2022-09-13T13:13:58;24.60;99.90
26136;DHT22;13889;50.806;4.608;2022-09-13T13:16:28;24.70;99.90
26136;DHT22;13889;50.806;4.608;2022-09-13T13:40:49;24.60;99.90
26136;DHT22;13889;50.806;4.608;2022-09-13T13:43:33;24.60;99.90
26136;DHT22;13889;50.806;4.608;2022-09-13T14:00:04;24.40;99.90
26136;DHT22;13889;50.806;4.608;2022-09-13T14:03:09;24.30;99.90
26136;DHT22;13889;50.806;4.608;2022-09-13T14:05:50;24.30;99.90
26136;DHT22;13889;50.806;4.608;2022-09-13T14:19:48;24.20;99.90
26136;DHT22;13889;50.806;4.608;2022-09-13T14:22:23;24.10;99.90
26136;DHT22;13889;50.806;4.608;2022-09-13T14:24:54;24.10;99.90
26136;DHT22;13889;50.806;4.608;2022-09-13T14:27:24;24.10;99.90
26136;DHT22;13889;50.806;4.608;2022-09-13T14:29:58;24.00;99.90
26136;DHT22;13889;50.806;4.608;2022-09-13T14:32:29;24.00;99.90
26136;DHT22;13889;50.806;4.608;2022-09-13T14:37:26;23.90;99.90
26136;DHT22;13889;50.806;4.608;2022-09-13T14:40:13;23.70;99.90
26136;DHT22;13889;50.806;4.608;2022-09-13T14:42:46;23.70;99.90
26136;DHT22;13889;50.806;4.608;2022-09-13T14:45:34;23.60;99.90
26136;DHT22;13889;50.806;4.608;2022-09-13T14:48:13;23.60;99.90
26136;DHT22;13889;50.806;4.608;2022-09-13T14:50:46;23.50;99.90
26136;DHT22;13889;50.806;4.608;2022-09-13T14:53:19;23.50;99.90
26136;DHT22;13889;50.806;4.608;2022-09-13T14:55:50;23.50;99.90
26136;DHT22;13889;50.806;4.608;2022-09-13T14:58:23;23.50;99.90
26136;DHT22;13889;50.806;4.608;2022-09-13T15:01:01;23.50;99.90
26136;DHT22;13889;50.806;4.608;2022-09-13T15:03:27;23.50;99.90
26136;DHT22;13889;50.806;4.608;2022-09-13T15:05:56;23.50;99.90
26136;DHT22;13889;50.806;4.608;2022-09-13T15:08:45;23.50;99.90
26136;DHT22;13889;50.806;4.608;2022-09-13T15:11:30;23.40;99.90
26136;DHT22;13889;50.806;4.608;2022-09-13T15:14:15;23.40;99.90
26136;DHT22;13889;50.806;4.608;2022-09-13T15:17:12;23.40;99.90
26136;DHT22;13889;50.806;4.608;2022-09-13T15:19:49;23.30;99.90
26136;DHT22;13889;50.806;4.608;2022-09-13T15:22:20;23.30;99.90
26136;DHT22;13889;50.806;4.608;2022-09-13T15:24:53;23.10;99.90
26136;DHT22;13889;50.806;4.608;2022-09-13T15:27:42;23.10;99.90
26136;DHT22;13889;50.806;4.608;2022-09-13T15:32:46;22.90;99.90
26136;DHT22;13889;50.806;4.608;2022-09-13T15:35:24;22.90;99.90
26136;DHT22;13889;50.806;4.608;2022-09-13T15:41:17;22.80;99.90
26136;DHT22;13889;50.806;4.608;2022-09-13T15:43:41;22.80;99.90
26136;DHT22;13889;50.806;4.608;2022-09-13T15:46:13;22.80;99.90
26136;DHT22;13889;50.806;4.608;2022-09-13T15:48:49;22.80;99.90
26136;DHT22;13889;50.806;4.608;2022-09-13T15:51:15;22.80;99.90
26136;DHT22;13889;50.806;4.608;2022-09-13T15:53:43;22.80;99.90
26136;DHT22;13889;50.806;4.608;2022-09-13T15:56:13;22.90;99.90
26136;DHT22;13889;50.806;4.608;2022-09-13T15:58:39;22.90;99.90
26136;DHT22;13889;50.806;4.608;2022-09-13T16:01:04;22.90;99.90
26136;DHT22;13889;50.806;4.608;2022-09-13T16:03:31;23.00;99.90
26136;DHT22;13889;50.806;4.608;2022-09-13T16:05:57;23.00;99.90
26136;DHT22;13889;50.806;4.608;2022-09-13T16:08:23;23.00;99.90
26136;DHT22;13889;50.806;4.608;2022-09-13T16:10:49;23.00;99.90
26136;DHT22;13889;50.806;4.608;2022-09-13T16:13:15;22.90;99.90
26136;DHT22;13889;50.806;4.608;2022-09-13T16:15:41;22.90;99.90
26136;DHT22;13889;50.806;4.608;2022-09-13T16:18:07;22.80;99.90
26136;DHT22;13889;50.806;4.608;2022-09-13T16:20:33;22.80;99.90
26136;DHT22;13889;50.806;4.608;2022-09-13T16:22:59;22.70;99.90
26136;DHT22;13889;50.806;4.608;2022-09-13T16:25:24;22.60;99.90
26136;DHT22;13889;50.806;4.608;2022-09-13T16:27:50;22.60;99.90
26136;DHT22;13889;50.806;4.608;2022-09-13T16:30:19;22.50;99.90
26136;DHT22;13889;50.806;4.608;2022-09-13T16:32:47;22.50;99.90
26136;DHT22;13889;50.806;4.608;2022-09-13T16:35:12;22.40;99.90
26136;DHT22;13889;50.806;4.608;2022-09-13T16:37:39;22.40;99.90
26136;DHT22;13889;50.806;4.608;2022-09-13T16:40:06;22.30;99.90
26136;DHT22;13889;50.806;4.608;2022-09-13T16:42:33;22.30;99.90
26136;DHT22;13889;50.806;4.608;2022-09-13T16:45:13;22.20;99.90
26136;DHT22;13889;50.806;4.608;2022-09-13T16:47:42;22.20;99.90
26136;DHT22;13889;50.806;4.608;2022-09-13T16:50:08;22.10;99.90
26136;DHT22;13889;50.806;4.608;2022-09-13T16:52:34;22.10;99.90
26136;DHT22;13889;50.806;4.608;2022-09-13T16:55:00;22.00;99.90
26136;DHT22;13889;50.806;4.608;2022-09-13T16:57:26;21.90;99.90
26136;DHT22;13889;50.806;4.608;2022-09-13T16:59:53;21.90;99.90
26136;DHT22;13889;50.806;4.608;2022-09-13T17:02:21;21.80;99.90
26136;DHT22;13889;50.806;4.608;2022-09-13T17:04:47;21.80;99.90
26136;DHT22;13889;50.806;4.608;2022-09-13T17:07:13;21.70;99.90
26136;DHT22;13889;50.806;4.608;2022-09-13T17:09:39;21.60;99.90
26136;DHT22;13889;50.806;4.608;2022-09-13T17:12:06;21.50;99.90
26136;DHT22;13889;50.806;4.608;2022-09-13T17:14:32;21.50;99.90
26136;DHT22;13889;50.806;4.608;2022-09-13T17:16:58;21.50;99.90
26136;DHT22;13889;50.806;4.608;2022-09-13T17:19:27;21.50;99.90
26136;DHT22;13889;50.806;4.608;2022-09-13T17:21:56;21.60;99.90
26136;DHT22;13889;50.806;4.608;2022-09-13T17:24:24;21.50;99.90
26136;DHT22;13889;50.806;4.608;2022-09-13T17:26:51;21.40;99.90
26136;DHT22;13889;50.806;4.608;2022-09-13T17:29:17;21.40;99.90
26136;DHT22;13889;50.806;4.608;2022-09-13T17:31:43;21.30;99.90
26136;DHT22;13889;50.806;4.608;2022-09-13T17:34:10;21.30;99.90
26136;DHT22;13889;50.806;4.608;2022-09-13T17:36:37;21.30;99.90
26136;DHT22;13889;50.806;4.608;2022-09-13T17:39:03;21.20;99.90
26136;DHT22;13889;50.806;4.608;2022-09-13T17:41:29;21.20;99.90
26136;DHT22;13889;50.806;4.608;2022-09-13T17:43:55;21.20;99.90
26136;DHT22;13889;50.806;4.608;2022-09-13T17:46:23;21.20;99.90
26136;DHT22;13889;50.806;4.608;2022-09-13T17:48:50;21.20;99.90
26136;DHT22;13889;50.806;4.608;2022-09-13T17:51:18;21.10;99.90
26136;DHT22;13889;50.806;4.608;2022-09-13T17:53:49;21.20;99.90
26136;DHT22;13889;50.806;4.608;2022-09-13T17:56:17;21.20;99.90
26136;DHT22;13889;50.806;4.608;2022-09-13T17:58:43;21.10;99.90
26136;DHT22;13889;50.806;4.608;2022-09-13T18:01:09;21.10;99.90
26136;DHT22;13889;50.806;4.608;2022-09-13T18:03:36;21.10;99.90
26136;DHT22;13889;50.806;4.608;2022-09-13T18:06:04;21.10;99.90
26136;DHT22;13889;50.806;4.608;2022-09-13T18:08:32;21.00;99.90
26136;DHT22;13889;50.806;4.608;2022-09-13T18:13:28;20.90;99.90
26136;DHT22;13889;50.806;4.608;2022-09-13T18:16:02;20.90;99.90
26136;DHT22;13889;50.806;4.608;2022-09-13T18:18:28;20.80;99.90
26136;DHT22;13889;50.806;4.608;2022-09-13T18:20:55;20.80;99.90
26136;DHT22;13889;50.806;4.608;2022-09-13T18:23:22;20.80;99.90
26136;DHT22;13889;50.806;4.608;2022-09-13T18:26:00;20.70;99.90
26136;DHT22;13889;50.806;4.608;2022-09-13T18:28:27;20.80;99.90
26136;DHT22;13889;50.806;4.608;2022-09-13T18:30:58;20.70;99.90
26136;DHT22;13889;50.806;4.608;2022-09-13T18:33:24;20.70;99.90
26136;DHT22;13889;50.806;4.608;2022-09-13T18:36:06;20.70;99.90
26136;DHT22;13889;50.806;4.608;2022-09-13T18:38:34;20.70;99.90
26136;DHT22;13889;50.806;4.608;2022-09-13T18:41:03;20.70;99.90
26136;DHT22;13889;50.806;4.608;2022-09-13T18:43:30;20.70;99.90
26136;DHT22;13889;50.806;4.608;2022-09-13T18:45:58;20.70;99.90
26136;DHT22;13889;50.806;4.608;2022-09-13T18:48:27;20.60;99.90
26136;DHT22;13889;50.806;4.608;2022-09-13T18:50:53;20.60;99.90
26136;DHT22;13889;50.806;4.608;2022-09-13T18:53:19;20.50;99.90
26136;DHT22;13889;50.806;4.608;2022-09-13T18:55:44;20.60;99.90
26136;DHT22;13889;50.806;4.608;2022-09-13T18:58:10;20.60;99.90
26136;DHT22;13889;50.806;4.608;2022-09-13T19:00:36;20.60;99.90
26136;DHT22;13889;50.806;4.608;2022-09-13T19:03:01;20.60;99.90
26136;DHT22;13889;50.806;4.608;2022-09-13T19:05:27;20.60;99.90
26136;DHT22;13889;50.806;4.608;2022-09-13T19:07:53;20.60;99.90
26136;DHT22;13889;50.806;4.608;2022-09-13T19:10:20;20.70;99.90
26136;DHT22;13889;50.806;4.608;2022-09-13T19:12:46;20.70;99.90
26136;DHT22;13889;50.806;4.608;2022-09-13T19:15:12;20.70;99.90
26136;DHT22;13889;50.806;4.608;2022-09-13T19:17:38;20.60;99.90
26136;DHT22;13889;50.806;4.608;2022-09-13T19:20:04;20.60;99.90
26136;DHT22;13889;50.806;4.608;2022-09-13T19:22:30;20.60;99.90
26136;DHT22;13889;50.806;4.608;2022-09-13T19:24:55;20.60;99.90
26136;DHT22;13889;50.806;4.608;2022-09-13T19:27:21;20.60;99.90
26136;DHT22;13889;50.806;4.608;2022-09-13T19:29:47;20.60;99.90
26136;DHT22;13889;50.806;4.608;2022-09-13T19:32:13;20.60;99.90
26136;DHT22;13889;50.806;4.608;2022-09-13T19:34:40;20.60;99.90
26136;DHT22;13889;50.806;4.608;2022-09-13T19:37:05;20.60;99.90
26136;DHT22;13889;50.806;4.608;2022-09-13T19:39:33;20.60;99.90
26136;DHT22;13889;50.806;4.608;2022-09-13T19:41:59;20.60;99.90
26136;DHT22;13889;50.806;4.608;2022-09-13T19:44:25;20.60;99.90
26136;DHT22;13889;50.806;4.608;2022-09-13T19:46:50;20.50;99.90
26136;DHT22;13889;50.806;4.608;2022-09-13T19:49:16;20.50;99.90
26136;DHT22;13889;50.806;4.608;2022-09-13T19:51:43;20.50;99.90
26136;DHT22;13889;50.806;4.608;2022-09-13T19:54:12;20.50;99.90
26136;DHT22;13889;50.806;4.608;2022-09-13T19:56:40;20.50;99.90
26136;DHT22;13889;50.806;4.608;2022-09-13T19:59:12;20.50;99.90
26136;DHT22;13889;50.806;4.608;2022-09-13T20:01:40;20.50;99.90
26136;DHT22;13889;50.806;4.608;2022-09-13T20:04:18;20.50;99.90
26136;DHT22;13889;50.806;4.608;2022-09-13T20:06:48;20.50;99.90
26136;DHT22;13889;50.806;4.608;2022-09-13T20:09:17;20.50;99.90
26136;DHT22;13889;50.806;4.608;2022-09-13T20:11:43;20.40;99.90
26136;DHT22;13889;50.806;4.608;2022-09-13T20:14:15;20.40;99.90
26136;DHT22;13889;50.806;4.608;2022-09-13T20:16:42;20.40;99.90
26136;DHT22;13889;50.806;4.608;2022-09-13T20:19:08;20.30;99.90
26136;DHT22;13889;50.806;4.608;2022-09-13T20:21:37;20.40;99.90
26136;DHT22;13889;50.806;4.608;2022-09-13T20:24:04;20.40;99.90
26136;DHT22;13889;50.806;4.608;2022-09-13T20:26:32;20.40;99.90
26136;DHT22;13889;50.806;4.608;2022-09-13T20:29:04;20.30;99.90
26136;DHT22;13889;50.806;4.608;2022-09-13T20:31:32;20.40;99.90
26136;DHT22;13889;50.806;4.608;2022-09-13T20:34:01;20.40;99.90
26136;DHT22;13889;50.806;4.608;2022-09-13T20:36:28;20.40;99.90
26136;DHT22;13889;50.806;4.608;2022-09-13T20:38:54;20.40;99.90
26136;DHT22;13889;50.806;4.608;2022-09-13T20:41:22;20.30;99.90
26136;DHT22;13889;50.806;4.608;2022-09-13T20:43:48;20.30;99.90
26136;DHT22;13889;50.806;4.608;2022-09-13T20:46:15;20.30;99.90
26136;DHT22;13889;50.806;4.608;2022-09-13T20:48:41;20.00;99.90
26136;DHT22;13889;50.806;4.608;2022-09-13T20:51:19;20.10;99.90
26136;DHT22;13889;50.806;4.608;2022-09-13T20:53:47;20.10;99.90
26136;DHT22;13889;50.806;4.608;2022-09-13T20:56:17;20.20;99.90
26136;DHT22;13889;50.806;4.608;2022-09-13T20:58:44;20.20;99.90
26136;DHT22;13889;50.806;4.608;2022-09-13T21:01:13;20.20;99.90
26136;DHT22;13889;50.806;4.608;2022-09-13T21:03:41;20.20;99.90
26136;DHT22;13889;50.806;4.608;2022-09-13T21:06:07;20.30;99.90
26136;DHT22;13889;50.806;4.608;2022-09-13T21:08:33;20.30;99.90
26136;DHT22;13889;50.806;4.608;2022-09-13T21:11:12;20.30;99.90
26136;DHT22;13889;50.806;4.608;2022-09-13T21:16:10;20.30;99.90
26136;DHT22;13889;50.806;4.608;2022-09-13T21:18:36;20.30;99.90
26136;DHT22;13889;50.806;4.608;2022-09-13T21:21:04;20.30;99.90
26136;DHT22;13889;50.806;4.608;2022-09-13T21:23:31;20.30;99.90
26136;DHT22;13889;50.806;4.608;2022-09-13T21:26:05;20.20;99.90
26136;DHT22;13889;50.806;4.608;2022-09-13T21:28:35;20.20;99.90
26136;DHT22;13889;50.806;4.608;2022-09-13T21:31:07;20.20;99.90
26136;DHT22;13889;50.806;4.608;2022-09-13T21:33:33;20.30;99.90
26136;DHT22;13889;50.806;4.608;2022-09-13T21:36:01;20.30;99.90
26136;DHT22;13889;50.806;4.608;2022-09-13T21:38:29;20.30;99.90
26136;DHT22;13889;50.806;4.608;2022-09-13T21:41:04;20.30;99.90
26136;DHT22;13889;50.806;4.608;2022-09-13T21:43:30;20.20;99.90
26136;DHT22;13889;50.806;4.608;2022-09-13T21:46:01;20.20;99.90
26136;DHT22;13889;50.806;4.608;2022-09-13T21:48:28;20.20;99.90
26136;DHT22;13889;50.806;4.608;2022-09-13T21:51:19;20.20;99.90
26136;DHT22;13889;50.806;4.608;2022-09-13T21:53:46;20.30;99.90
26136;DHT22;13889;50.806;4.608;2022-09-13T21:56:14;20.30;99.90
26136;DHT22;13889;50.806;4.608;2022-09-13T21:58:41;20.30;99.90
26136;DHT22;13889;50.806;4.608;2022-09-13T22:01:13;20.30;99.90
26136;DHT22;13889;50.806;4.608;2022-09-13T22:03:41;20.20;99.90
26136;DHT22;13889;50.806;4.608;2022-09-13T22:06:09;20.30;99.90
26136;DHT22;13889;50.806;4.608;2022-09-13T22:08:38;20.30;99.90